Home > Products > Valid Products > MTR

000
SAUS43 KDDC 160357
MTRP28
METAR KP28 160356Z AUTO 17010G19KT 12/M07 A2991 RMK AO1 SLP126
T01221067





000
SAUS43 KDDC 160257
MTRP28
METAR KP28 160256Z AUTO 17010G20KT 13/M06 A2991 RMK AO1 SLP128
T01331061 55005





000
SAUS43 KDDC 160157
MTRP28
METAR KP28 160156Z AUTO 17011G18KT 14/M07 A2990 RMK AO1 SLP128
T01441067





000
SAUS43 KDDC 160057
MTRP28
METAR KP28 160056Z AUTO 16010G18KT 17/M07 A2990 RMK AO1 SLP129
T01671072





000
SAUS43 KDDC 152357
MTRP28
METAR KP28 152356Z AUTO 18014G23KT 19/M08 A2993 RMK AO1 SLP137
T01891078 10206 20139 56030





000
SAUS43 KDDC 152257
MTRP28
METAR KP28 152256Z AUTO 19012G21KT 19/M08 A2994 RMK AO1 PK WND
19026/2227 SLP142 T01891083





000
SAUS43 KDDC 152157
MTRP28
METAR KP28 152156Z AUTO 19016G24KT 20/M09 A2998 RMK AO1 SLP152
T02001089





000
SAUS43 KDDC 152057
MTRP28
METAR KP28 152056Z AUTO 20011G22KT 18/M09 A3002 RMK AO1 PK WND
20026/2020 SLP169 T01781094 56037





000
SAUS43 KDDC 151957
MTRP28
METAR KP28 151956Z AUTO 19010G23KT 17/M09 A3006 RMK AO1 SLP181
T01721089





000
SAUS43 KDDC 151857
MTRP28
METAR KP28 151856Z AUTO 20014G20KT 16/M09 A3009 RMK AO1 SLP194
T01561094





000
SAUS43 KDDC 151757
MTRP28
METAR KP28 151756Z AUTO 23007G17KT 14/M10 A3013 RMK AO1 SLP208
T01441100 10144 21039 58021





000
SAUS43 KDDC 151657
MTRP28
METAR KP28 151656Z AUTO 25004KT 13/M10 A3017 RMK AO1 SLP222
T01331100





000
SAUS43 KDDC 151557
MTRP28
METAR KP28 151556Z AUTO 24005KT 12/M09 A3018 RMK AO1 SLP223
T01221094





000
SAUS43 KDDC 151457
MTRP28
METAR KP28 151456Z AUTO 23003KT 08/M04 A3020 RMK AO1 SLP233
T00781044 58002





000
SAUS43 KDDC 151357
MTRP28
METAR KP28 151356Z AUTO 27004KT 03/M06 A3021 RMK AO1 SLP239
T00331056





000
SAUS43 KDDC 151257
MTRP28
METAR KP28 151256Z AUTO 36003KT M02/M06 A3021 RMK AO1 SLP240
T10171061





000
SAUS43 KDDC 151158
MTRP28
METAR KP28 151156Z AUTO 01005KT M04/M08 A3021 RMK AO1 SLP238
T10391078 10006 21039 55001





000
SAUS43 KDDC 151057
MTRP28
METAR KP28 151056Z AUTO 32003KT M03/M08 A3020 RMK AO1 SLP234
T10331078





000
SAUS43 KDDC 150957
MTRP28
METAR KP28 150956Z AUTO 35004KT M02/M07 A3021 RMK AO1 SLP239
T10171072





000
SAUS43 KDDC 150857
MTRP28
METAR KP28 150856Z AUTO 36004KT M02/M07 A3021 RMK AO1 SLP239
T10171072 58006





000
SAUS43 KDDC 150757
MTRP28
METAR KP28 150756Z AUTO 30003KT 00/M07 A3022 RMK AO1 SLP243
T00001072





000
SAUS43 KDDC 150658
MTRP28
METAR KP28 150656Z AUTO 31003KT 00/M07 A3023 RMK AO1 SLP247
T00001072





000
SAUS43 KDDC 150558
MTRP28
METAR KP28 150556Z AUTO 30004KT 01/M07 A3023 RMK AO1 SLP247
T00061072 10106 20006 401111011 50002





000
SAUS43 KDDC 150458
MTRP28
METAR KP28 150456Z AUTO 33003KT 01/M08 A3023 RMK AO1 SLP249
T00111078





000
SAUS43 KDDC 150358
MTRP28
METAR KP28 150356Z AUTO 30003KT 03/M07 A3023 RMK AO1 SLP248
T00281072





000
SAUS43 KDDC 150258
MTRP28
METAR KP28 150256Z AUTO 00000KT 04/M09 A3022 RMK AO1 SLP245
T00441089 53009





000
SAUS43 KDDC 150158
MTRP28
METAR KP28 150156Z AUTO 34004KT 06/M10 A3020 RMK AO1 SLP237
T00561100





000
SAUS43 KDDC 150057
MTRP28
METAR KP28 150056Z AUTO 34008KT 09/M11 A3019 RMK AO1 SLP233
T00891111





000
SAUS43 KDDC 142357
MTRP28
METAR KP28 142356Z AUTO 35015G20KT 10/M11 A3019 RMK AO1 SLP232
T01001111 10111 20056 56006





000
SAUS43 KDDC 142257
MTRP28
METAR KP28 142256Z AUTO 34014G23KT 11/M12 A3020 RMK AO1 PK WND
02028/2226 SLP233 T01061122





000
SAUS43 KDDC 142157
MTRP28
METAR KP28 142156Z AUTO 34018G27KT 10/M12 A3020 RMK AO1 PK WND
35031/2111 SLP235 T01001117





000
SAUS43 KDDC 142057
MTRP28
METAR KP28 142056Z AUTO 36018G26KT 11/M11 A3021 RMK AO1 PK WND
35033/2012 SLP237 T01061106 56010





000
SAUS43 KDDC 141957
MTRP28
METAR KP28 141956Z AUTO 35019G27KT 09/M09 A3021 RMK AO1 PK WND
02032/1931 SLP238 T00941094





000
SAUS43 KDDC 141857
MTRP28
METAR KP28 141856Z AUTO 36020G30KT 08/M08 A3023 RMK AO1 PK WND
02032/1829 SLP244 T00781078





000
SAUS43 KDDC 141757
MTRP28
METAR KP28 141756Z AUTO 36021G29KT 06/M08 A3024 RMK AO1 PK WND
36029/1752 SLP250 T00561078 10056 21006 50010





000
SAUS43 KDDC 141658
MTRP28
METAR KP28 141656Z AUTO 35020G28KT 03/M04 A3025 RMK AO1 PK WND
01030/1631 SLP253 T00331044





000
SAUS43 KDDC 141557
MTRP28
METAR KP28 141556Z AUTO 36017G27KT 01/M04 A3023 RMK AO1 PK WND
01031/1543 SLP248 T00061039





000
SAUS43 KDDC 141457
MTRP28
METAR KP28 141456Z AUTO 34019G28KT 01/M06 A3021 RMK AO1 PK WND
36031/1416 SLP243 T00111056 51034





000
SAUS43 KDDC 141357
MTRP28
METAR KP28 141356Z AUTO 36016G26KT 01/M05 A3019 RMK AO1 PK WND
01031/1315 SLP233 T00061050





000
SAUS43 KDDC 141258
MTRP28
METAR KP28 141256Z AUTO 36018G29KT 00/M05 A3015 RMK AO1 PK WND
36035/1217 SLP221 T00001050





000
SAUS43 KDDC 141157
MTRP28
METAR KP28 141156Z AUTO 35024G36KT M01/M03 A3011 RMK AO1 PK WND
34036/1155 SLP206 60007 70008 T10061033 10033 21011 51026





000
SAUS43 KDDC 141057
MTRP28
METAR KP28 141056Z AUTO 34018G27KT M01/M02 A3009 RMK AO1 PK WND
35037/1009 SLP198 P0001 T10061017





000
SAUS43 KDDC 140957
MTRP28
METAR KP28 140956Z AUTO 35018G27KT 00/M01 A3007 RMK AO1 PK WND
36028/0931 SLP192 P0005 T00001011





000
SAUS43 KDDC 140857
MTRP28
METAR KP28 140856Z AUTO 35019G26KT 00/M01 A3003 RMK AO1 PK WND
01028/0811 SLP175 P0001 60001 T00001006 51030





000
SAUS43 KDDC 140757
MTRP28
METAR KP28 140756Z AUTO 35016G24KT 00/M01 A3000 RMK AO1 PK WND
36032/0731 SLP164 T00001006





000
SAUS43 KDDC 140657
MTRP28
METAR KP28 140656Z AUTO 35018G33KT 03/M03 A3000 RMK AO1 PK WND
35037/0608 SLP162 T00331033





000
SAUS43 KDDC 140557
MTRP28
METAR KP28 140556Z AUTO 01025G37KT 03/M03 A2994 RMK AO1 PK WND
36037/0552 SLP138 T00281028 10050 20022 402720022 50019





000
SAUS43 KDDC 140457
MTRP28
METAR KP28 140456Z AUTO 35019G27KT 03/M02 A2996 RMK AO1 PK WND
01033/0437 PRESRR SLP146 T00281017





000
SAUS43 KDDC 140357
MTRP28
METAR KP28 140356Z AUTO 36026G34KT 03/M01 A2990 RMK AO1 PK WND
02037/0342 SLP122 T00281011





000
SAUS43 KDDC 140258
MTRP28
METAR KP28 140256Z AUTO 36024G30KT 02/M01 A2988 RMK AO1 PK WND
36033/0242 SLP113 T00221011 51035





000
SAUS43 KDDC 140158
MTRP28
METAR KP28 140156Z AUTO 35019G27KT 03/M02 A2987 RMK AO1 PK WND
36039/0125 SLP111 T00331017





000
SAUS43 KDDC 140058
MTRP28
METAR KP28 140056Z AUTO 35020G27KT 03/M01 A2981 RMK AO1 PK WND
35035/0030 SLP092 T00331006





000
SAUS43 KDDC 132357
MTRP28
METAR KP28 132356Z AUTO 36025G35KT 05/00 A2977 RMK AO1 PK WND
35039/2320 SLP077 T00500000 10172 20050 53048





000
SAUS43 KDDC 132257
MTRP28
METAR KP28 132256Z AUTO 35021G31KT 06/03 A2972 RMK AO1 PK WND
01038/2220 SLP057 T00610028





000
SAUS43 KDDC 132158
MTRP28
METAR KP28 132156Z AUTO 35028G39KT 09/04 A2967 RMK AO1 PK WND
35039/2149 SLP040 T00890039





000
SAUS43 KDDC 132057
MTRP28
METAR KP28 132056Z AUTO 34023G34KT 11/05 A2962 RMK AO1 PK WND
35036/2005 SLP023 T01060050 53030





000
SAUS43 KDDC 131957
MTRP28
METAR KP28 131956Z AUTO 35029G37KT 13/06 A2957 RMK AO1 PK WND
33037/1941 SLP004 T01330061





000
SAUS43 KDDC 131857
MTRP28
METAR KP28 131856Z AUTO 34024G31KT 15/07 A2956 RMK AO1 PK WND
35035/1823 SLP001 T01500072





000
SAUS43 KDDC 131758
MTRP28
METAR KP28 131756Z AUTO 33025G32KT 17/09 A2953 RMK AO1 PK WND
33032/1756 SLP987 60001 T01670089 10272 20167 53022





000
SAUS43 KDDC 131657
MTRP28
METAR KP28 131656Z AUTO 34017G27KT 17/11 A2950 RMK AO1 PK WND
34027/1653 SLP976 T01720106





000
SAUS43 KDDC 131558
MTRP28
METAR KP28 131556Z AUTO 27007KT 21/09 A2947 RMK AO1 WSHFT 1444
SLP964 P0001 T02110089





000
SAUS43 KDDC 131506
MTRP28
SPECI KP28 131504Z AUTO 29010G19KT 22/03 A2947 RMK AO1 WSHFT 1444
T02220033





000
SAUS43 KDDC 131458
MTRP28
METAR KP28 131456Z AUTO 28011G21KT 26/07 A2946 RMK AO1 SLP959
T02610067 53010





000
SAUS43 KDDC 131357
MTRP28
METAR KP28 131356Z AUTO 18005KT 23/14 A2944 RMK AO1 SLP952 T02330139





000
SAUS43 KDDC 131258
MTRP28
METAR KP28 131256Z AUTO 13005KT 23/13 A2943 RMK AO1 SLP948 T02280128





000
SAUS43 KDDC 131158
MTRP28
METAR KP28 131156Z AUTO 16005KT 22/11 A2943 RMK AO1 SLP948 T02220106
10239 20211 55006





000
SAUS43 KDDC 131057
MTRP28
METAR KP28 131056Z AUTO 17007KT 23/13 A2942 RMK AO1 SLP944 T02330128





000
SAUS43 KDDC 130957
MTRP28
METAR KP28 130956Z AUTO 16005KT 22/14 A2943 RMK AO1 SLP947 T02170144





000
SAUS43 KDDC 130857
MTRP28
METAR KP28 130856Z AUTO 13004KT 22/14 A2945 RMK AO1 SLP953 T02220144
56023





000
SAUS43 KDDC 130758
MTRP28
METAR KP28 130756Z AUTO 17005KT 22/14 A2947 RMK AO1 SLP960 T02220144





000
SAUS43 KDDC 130657
MTRP28
METAR KP28 130656Z AUTO 16007KT 23/14 A2950 RMK AO1 SLP970 T02280144





000
SAUS43 KDDC 130557
MTRP28
METAR KP28 130556Z AUTO 19008KT 24/14 A2952 RMK AO1 PK WND
20027/0458 SLP979 T02390144 10300 20239 403440139 53003





000
SAUS43 KDDC 130457
MTRP28
METAR KP28 130456Z AUTO 19019G36KT 26/14 A2951 RMK AO1 PK WND
18039/0436 SLP975 T02560139





    US Dept of Commerce
    National Oceanic and Atmospheric Administration
    National Weather Service
    1325 East West Highway
    Silver Spring, MD 20910
    Page Author: NWS Internet Services Team
Disclaimer
Information Quality
Credits
Glossary
Privacy Policy
Freedom of Information Act (FOIA)
About Us
Career Opportunities